createdAt,value
2018-07-17T00:01:45.810Z,30.62
2018-07-17T00:04:17.419Z,30.50
2018-07-17T00:06:47.914Z,31.57
2018-07-17T00:09:18.086Z,32.80
2018-07-17T00:11:48.515Z,27.50
2018-07-17T00:14:19.803Z,36.10
2018-07-17T00:16:50.243Z,29.90
2018-07-17T00:19:20.770Z,31.00
2018-07-17T00:21:50.950Z,31.02
2018-07-17T00:24:21.202Z,27.80
2018-07-17T00:26:51.509Z,29.80
2018-07-17T00:29:21.660Z,28.98
2018-07-17T00:31:52.630Z,25.32
2018-07-17T00:34:22.900Z,21.12
2018-07-17T00:36:53.338Z,18.30
2018-07-17T00:39:23.653Z,25.60
2018-07-17T00:41:53.963Z,26.52
2018-07-17T00:44:24.220Z,28.27
2018-07-17T00:46:54.581Z,22.03
2018-07-17T00:49:24.783Z,22.22
2018-07-17T00:51:55.020Z,18.35
2018-07-17T00:54:24.525Z,25.20
2018-07-17T00:56:54.670Z,22.17
2018-07-17T00:59:24.917Z,28.25
2018-07-17T01:02:00.057Z,21.95
2018-07-17T01:04:35.228Z,23.60
2018-07-17T01:07:11.843Z,21.87
2018-07-17T01:09:47.335Z,35.20
2018-07-17T01:12:16.538Z,22.07
2018-07-17T01:14:58.387Z,29.80
2018-07-17T01:17:29.230Z,19.95
2018-07-17T01:19:59.548Z,23.18
2018-07-17T01:22:29.740Z,22.90
2018-07-17T01:25:00.023Z,16.42
2018-07-17T01:27:30.190Z,23.20
2018-07-17T01:30:00.410Z,17.62
2018-07-17T01:32:30.572Z,16.03
2018-07-17T01:35:00.610Z,23.57
2018-07-17T01:37:30.924Z,17.60
2018-07-17T01:40:01.124Z,19.90
2018-07-17T01:42:31.125Z,18.67
2018-07-17T01:45:02.110Z,20.55
2018-07-17T01:47:32.331Z,17.17
2018-07-17T01:50:02.317Z,25.80
2018-07-17T01:52:32.444Z,23.02
2018-07-17T01:55:02.787Z,21.48
2018-07-17T01:57:33.107Z,23.27
2018-07-17T02:00:03.523Z,20.05
2018-07-17T02:02:33.573Z,15.60
2018-07-17T02:05:03.778Z,17.42
2018-07-17T02:07:34.024Z,18.90
2018-07-17T02:10:03.677Z,22.82
2018-07-17T02:12:33.876Z,20.57
2018-07-17T02:15:04.424Z,12.78
2018-07-17T02:17:34.581Z,18.37
2018-07-17T02:20:05.385Z,12.50
2018-07-17T02:22:35.758Z,21.42
2018-07-17T02:25:06.269Z,14.15
2018-07-17T02:27:36.685Z,13.80
2018-07-17T02:30:06.794Z,23.05
2018-07-17T02:32:36.998Z,17.85
2018-07-17T02:35:07.712Z,13.43
2018-07-17T02:37:37.981Z,17.23
2018-07-17T02:40:08.209Z,17.85
2018-07-17T02:42:38.475Z,18.20
2018-07-17T02:45:07.909Z,14.85
2018-07-17T02:47:38.079Z,23.45
2018-07-17T02:50:08.425Z,15.40
2018-07-17T02:52:39.059Z,16.40
2018-07-17T02:55:09.473Z,17.10
2018-07-17T02:57:39.954Z,17.73
2018-07-17T03:00:11.433Z,22.50
2018-07-17T03:02:41.741Z,19.27
2018-07-17T03:05:11.965Z,17.90
2018-07-17T03:07:42.274Z,16.57
2018-07-17T03:10:13.119Z,18.23
2018-07-17T03:12:43.239Z,18.98
2018-07-17T03:15:13.336Z,17.77
2018-07-17T03:17:43.724Z,13.18
2018-07-17T03:20:13.923Z,18.57
2018-07-17T03:22:44.063Z,19.25
2018-07-17T03:25:14.858Z,25.27
2018-07-17T03:27:45.357Z,51.83
2018-07-17T03:30:15.662Z,24.05
2018-07-17T03:32:45.862Z,19.62
2018-07-17T03:35:16.005Z,27.62
2018-07-17T03:37:45.684Z,26.62
2018-07-17T03:40:15.878Z,22.37
2018-07-17T03:42:46.070Z,19.87
2018-07-17T03:45:16.449Z,18.77
2018-07-17T03:47:46.704Z,17.40
2018-07-17T03:50:16.939Z,20.90
2018-07-17T03:52:47.098Z,17.35
2018-07-17T03:55:17.421Z,23.10
2018-07-17T03:57:47.514Z,16.52
2018-07-17T04:00:17.872Z,14.50
2018-07-17T04:02:48.125Z,21.02
2018-07-17T04:05:18.436Z,20.57
2018-07-17T04:07:49.188Z,18.85
2018-07-17T04:10:19.573Z,14.90
2018-07-17T04:12:50.109Z,19.65
2018-07-17T04:15:20.149Z,19.62
2018-07-17T04:17:50.532Z,16.90
2018-07-17T04:20:20.926Z,16.70
2018-07-17T04:22:51.066Z,18.23
2018-07-17T04:25:21.682Z,21.12
2018-07-17T04:27:52.548Z,15.38
2018-07-17T04:30:22.813Z,24.43
2018-07-17T04:32:52.861Z,19.00
2018-07-17T04:35:23.318Z,18.80
2018-07-17T04:37:53.879Z,24.72
2018-07-17T04:40:24.284Z,20.30
2018-07-17T04:42:54.669Z,20.77
2018-07-17T04:45:24.893Z,22.73
2018-07-17T04:47:55.162Z,23.50
2018-07-17T04:50:25.566Z,20.25
2018-07-17T04:52:55.649Z,19.70
2018-07-17T04:55:25.835Z,19.10
2018-07-17T04:57:56.227Z,19.90
2018-07-17T05:00:26.431Z,21.97
2018-07-17T05:02:56.696Z,23.00
2018-07-17T05:05:26.926Z,17.70
2018-07-17T05:07:57.655Z,15.35
2018-07-17T05:10:28.233Z,20.60
2018-07-17T05:12:58.568Z,19.98
2018-07-17T05:15:28.844Z,17.10
2018-07-17T05:17:59.116Z,13.62
2018-07-17T05:20:29.092Z,23.65
2018-07-17T05:22:59.521Z,17.07
2018-07-17T05:25:29.021Z,15.98
2018-07-17T05:27:59.174Z,14.60
2018-07-17T05:30:29.359Z,16.17
2018-07-17T05:33:00.862Z,16.23
2018-07-17T05:35:31.228Z,17.98
2018-07-17T05:38:01.558Z,18.15
2018-07-17T05:40:31.955Z,13.88
2018-07-17T05:43:02.383Z,17.35
2018-07-17T05:45:32.783Z,22.32
2018-07-17T05:48:08.205Z,17.75
2018-07-17T05:50:38.554Z,16.60
2018-07-17T05:53:14.145Z,16.23
2018-07-17T05:55:44.535Z,16.27
2018-07-17T05:58:15.171Z,28.95
2018-07-17T06:00:45.612Z,12.85
2018-07-17T06:03:16.389Z,11.30
2018-07-17T06:05:46.731Z,14.93
2018-07-17T06:08:17.141Z,16.82
2018-07-17T06:10:47.309Z,21.23
2018-07-17T06:13:17.285Z,22.50
2018-07-17T06:15:47.537Z,18.57
2018-07-17T06:18:18.188Z,20.40
2018-07-17T06:20:48.530Z,18.40
2018-07-17T06:23:19.209Z,25.92
2018-07-17T06:25:50.900Z,21.15
2018-07-17T06:28:21.255Z,16.60
2018-07-17T06:30:51.762Z,17.70
2018-07-17T06:33:22.505Z,15.23
2018-07-17T06:35:53.618Z,10.50
2018-07-17T06:38:23.834Z,11.15
2018-07-17T06:40:53.963Z,13.13
2018-07-17T06:43:24.304Z,12.78
2018-07-17T06:45:56.405Z,15.30
2018-07-17T06:48:26.272Z,17.82
2018-07-17T06:50:56.567Z,15.00
2018-07-17T06:53:27.148Z,11.83
2018-07-17T06:55:58.494Z,8.83
2018-07-17T06:58:29.000Z,11.68
2018-07-17T07:00:59.109Z,12.58
2018-07-17T07:03:29.132Z,21.07
2018-07-17T07:05:59.324Z,10.53
2018-07-17T07:08:29.682Z,16.02
2018-07-17T07:11:00.366Z,18.25
2018-07-17T07:13:31.298Z,17.50
2018-07-17T07:16:01.795Z,15.63
2018-07-17T07:18:32.317Z,8.75
2018-07-17T07:21:02.445Z,14.87
2018-07-17T07:23:32.753Z,12.35
2018-07-17T07:26:03.176Z,15.18
2018-07-17T07:28:34.086Z,15.40
2018-07-17T07:31:05.232Z,12.00
2018-07-17T07:33:35.986Z,13.43
2018-07-17T07:36:07.415Z,18.37
2018-07-17T07:38:37.532Z,17.30
2018-07-17T07:41:07.949Z,18.37
2018-07-17T07:43:38.102Z,12.20
2018-07-17T07:46:08.226Z,14.38
2018-07-17T07:48:38.558Z,11.03
2018-07-17T07:51:08.785Z,20.20
2018-07-17T07:53:39.066Z,10.20
2018-07-17T07:56:09.368Z,14.55
2018-07-17T07:58:39.734Z,10.25
2018-07-17T08:01:10.818Z,18.48
2018-07-17T08:03:41.131Z,12.50
2018-07-17T08:06:11.657Z,16.23
2018-07-17T08:08:42.463Z,17.92
2018-07-17T08:11:12.724Z,9.10
2018-07-17T08:13:43.290Z,10.85
2018-07-17T08:16:14.312Z,8.18
2018-07-17T08:18:44.918Z,13.10
2018-07-17T08:21:16.071Z,13.78
2018-07-17T08:23:47.495Z,10.25
2018-07-17T08:26:17.740Z,9.18
2018-07-17T08:28:48.489Z,15.25
2018-07-17T08:31:18.900Z,9.78
2018-07-17T08:33:48.658Z,11.83
2018-07-17T08:36:19.327Z,15.78
2018-07-17T08:38:50.417Z,9.63
2018-07-17T08:41:21.121Z,13.22
2018-07-17T08:43:51.444Z,9.40
2018-07-17T08:46:21.166Z,12.43
2018-07-17T08:48:51.478Z,9.45
2018-07-17T08:51:21.768Z,11.75
2018-07-17T08:53:52.054Z,8.03
2018-07-17T08:56:22.093Z,13.32
2018-07-17T08:58:52.782Z,8.88
2018-07-17T09:01:22.792Z,9.23
2018-07-17T09:03:52.735Z,12.13
2018-07-17T09:06:23.093Z,12.15
2018-07-17T09:08:53.632Z,9.73
2018-07-17T09:11:24.189Z,10.50
2018-07-17T09:13:55.542Z,8.83
2018-07-17T09:16:26.615Z,12.33
2018-07-17T09:18:56.895Z,9.73
2018-07-17T09:21:27.295Z,9.80
2018-07-17T09:23:57.593Z,9.50
2018-07-17T09:26:27.812Z,6.28
2018-07-17T09:28:58.108Z,10.10
2018-07-17T09:31:27.447Z,8.33
2018-07-17T09:33:57.474Z,7.85
2018-07-17T09:36:27.881Z,15.90
2018-07-17T09:38:58.061Z,12.45
2018-07-17T09:41:28.401Z,8.43
2018-07-17T09:43:58.062Z,8.48
2018-07-17T09:46:28.445Z,6.58
2018-07-17T09:48:58.786Z,8.60
2018-07-17T09:51:29.130Z,10.25
2018-07-17T09:54:00.077Z,11.95
2018-07-17T09:56:30.406Z,12.25
2018-07-17T09:59:00.593Z,8.70
2018-07-17T10:01:35.927Z,9.33
2018-07-17T10:04:06.343Z,8.03
2018-07-17T10:06:36.527Z,5.40
2018-07-17T10:09:08.249Z,13.45
2018-07-17T10:14:15.844Z,8.68
2018-07-17T10:16:46.595Z,11.28
2018-07-17T10:19:16.907Z,8.90
2018-07-17T10:21:46.857Z,8.25
2018-07-17T10:24:17.625Z,11.22
2018-07-17T10:26:47.707Z,9.75
2018-07-17T10:29:17.863Z,10.18
2018-07-17T10:31:48.146Z,13.62
2018-07-17T10:34:17.763Z,9.68
2018-07-17T10:36:47.210Z,6.33
2018-07-17T10:39:17.474Z,8.38
2018-07-17T10:41:47.976Z,5.47
2018-07-17T10:44:18.207Z,13.43
2018-07-17T10:46:48.775Z,9.98
2018-07-17T10:49:18.269Z,9.18
2018-07-17T10:51:48.485Z,7.40
2018-07-17T10:54:19.500Z,3.85
2018-07-17T10:56:50.054Z,5.62
2018-07-17T10:59:20.622Z,7.17
2018-07-17T11:01:51.532Z,5.75
2018-07-17T11:04:22.891Z,6.65
2018-07-17T11:06:52.536Z,10.50
2018-07-17T11:09:23.000Z,5.42
2018-07-17T11:11:53.354Z,5.10
2018-07-17T11:14:23.579Z,5.65
2018-07-17T11:16:54.083Z,7.15
2018-07-17T11:19:24.125Z,5.70
2018-07-17T11:21:54.631Z,5.53
2018-07-17T11:24:25.611Z,5.22
2018-07-17T11:26:55.944Z,7.20
2018-07-17T11:29:26.115Z,6.83
2018-07-17T11:31:57.626Z,8.25
2018-07-17T11:34:27.792Z,7.95
2018-07-17T11:36:57.953Z,9.35
2018-07-17T11:39:28.839Z,15.45
2018-07-17T11:41:59.612Z,9.13
2018-07-17T11:44:30.547Z,5.40
2018-07-17T11:47:00.636Z,8.20
2018-07-17T11:49:30.781Z,6.08
2018-07-17T11:52:02.276Z,11.25
2018-07-17T11:54:33.243Z,7.20
2018-07-17T11:57:03.595Z,10.85
2018-07-17T11:59:34.048Z,15.23
2018-07-17T12:02:04.925Z,7.10
2018-07-17T12:04:35.371Z,5.67
2018-07-17T12:07:05.678Z,5.87
2018-07-17T12:09:35.964Z,9.00
2018-07-17T12:12:06.385Z,7.70
2018-07-17T12:14:36.937Z,7.92
2018-07-17T12:17:07.053Z,15.32
2018-07-17T12:19:37.051Z,10.43
2018-07-17T12:22:07.444Z,9.75
2018-07-17T12:24:38.020Z,6.75
2018-07-17T12:27:08.399Z,11.95
2018-07-17T12:29:38.633Z,12.78
2018-07-17T12:32:08.942Z,9.68
2018-07-17T12:34:39.381Z,10.53
2018-07-17T12:37:09.941Z,7.47
2018-07-17T12:39:40.624Z,11.20
2018-07-17T12:42:10.417Z,12.78
2018-07-17T12:44:40.712Z,8.70
2018-07-17T12:47:11.474Z,14.35
2018-07-17T12:49:42.451Z,8.68
2018-07-17T12:52:12.722Z,9.98
2018-07-17T12:54:43.331Z,9.13
2018-07-17T12:57:13.648Z,6.03
2018-07-17T12:59:43.990Z,7.60
2018-07-17T13:02:15.162Z,8.70
2018-07-17T13:04:45.467Z,9.00
2018-07-17T13:07:15.779Z,8.03
2018-07-17T13:09:47.035Z,10.38
2018-07-17T13:12:17.387Z,6.72
2018-07-17T13:14:48.449Z,10.32
2018-07-17T13:17:18.103Z,7.67
2018-07-17T13:19:48.571Z,9.43
2018-07-17T13:22:19.178Z,10.75
2018-07-17T13:24:49.385Z,11.75
2018-07-17T13:27:19.550Z,8.43
2018-07-17T13:29:49.959Z,4.42
2018-07-17T13:32:20.155Z,9.48
2018-07-17T13:34:50.829Z,11.97
2018-07-17T13:37:20.991Z,8.80
2018-07-17T13:39:51.199Z,6.85
2018-07-17T13:42:22.853Z,10.28
2018-07-17T13:44:53.572Z,10.15
2018-07-17T13:47:23.755Z,10.20
2018-07-17T13:49:55.417Z,10.23
2018-07-17T13:52:26.220Z,8.78
2018-07-17T13:54:56.932Z,10.65
2018-07-17T13:57:27.086Z,9.35
2018-07-17T13:59:57.419Z,10.08
2018-07-17T14:02:28.773Z,9.88
2018-07-17T14:04:59.348Z,6.20
2018-07-17T14:07:29.944Z,5.67
2018-07-17T14:09:59.717Z,5.12
2018-07-17T14:12:30.133Z,10.05
2018-07-17T14:15:00.409Z,15.30
2018-07-17T14:17:30.926Z,7.47
2018-07-17T14:20:01.281Z,9.30
2018-07-17T14:22:31.473Z,6.12
2018-07-17T14:25:02.590Z,7.22
2018-07-17T14:27:33.052Z,10.90
2018-07-17T14:30:03.129Z,6.80
2018-07-17T14:32:33.668Z,10.25
2018-07-17T14:35:03.667Z,5.40
2018-07-17T14:37:34.336Z,5.70
2018-07-17T14:40:05.868Z,5.40
2018-07-17T14:42:36.554Z,6.65
2018-07-17T14:45:06.516Z,5.83
2018-07-17T14:47:36.672Z,6.90
2018-07-17T14:50:06.918Z,6.92
2018-07-17T14:52:36.432Z,4.22
2018-07-17T14:55:07.999Z,6.75
2018-07-17T14:57:38.578Z,6.97
2018-07-17T15:00:10.031Z,6.80
2018-07-17T15:02:40.853Z,8.43
2018-07-17T15:05:11.575Z,9.25
2018-07-17T15:07:42.440Z,6.42
2018-07-17T15:10:13.698Z,5.47
2018-07-17T15:12:44.244Z,14.33
2018-07-17T15:15:15.702Z,7.78
2018-07-17T15:17:45.780Z,9.98
2018-07-17T15:20:16.745Z,7.60
2018-07-17T15:22:47.370Z,7.15
2018-07-17T15:25:18.401Z,7.90
2018-07-17T15:27:48.761Z,6.42
2018-07-17T15:30:19.804Z,10.50
2018-07-17T15:32:49.973Z,6.67
2018-07-17T15:35:20.268Z,10.32
2018-07-17T15:37:50.469Z,7.55
2018-07-17T15:40:20.870Z,5.60
2018-07-17T15:42:50.514Z,5.35
2018-07-17T15:45:21.649Z,7.53
2018-07-17T15:47:52.658Z,9.10
2018-07-17T15:50:22.832Z,6.00
2018-07-17T15:52:54.345Z,7.78
2018-07-17T15:55:24.860Z,6.72
2018-07-17T15:57:55.372Z,10.40
2018-07-17T16:00:28.153Z,6.35
2018-07-17T16:02:59.198Z,6.70
2018-07-17T16:05:29.464Z,8.28
2018-07-17T16:08:02.332Z,9.10
2018-07-17T16:10:32.616Z,6.45
2018-07-17T16:13:02.807Z,8.70
2018-07-17T16:15:33.129Z,6.75
2018-07-17T16:18:03.337Z,10.93
2018-07-17T16:20:34.071Z,6.15
2018-07-17T16:23:04.366Z,5.70
2018-07-17T16:25:34.734Z,7.05
2018-07-17T16:28:05.723Z,7.95
2018-07-17T16:30:36.286Z,5.37
2018-07-17T16:33:08.355Z,5.45
2018-07-17T16:35:38.683Z,5.92
2018-07-17T16:38:10.605Z,7.08
2018-07-17T16:40:45.087Z,7.08
2018-07-17T16:43:19.137Z,7.33
2018-07-17T16:45:53.144Z,4.92
2018-07-17T16:48:24.119Z,5.42
2018-07-17T17:34:41.337Z,7.58
2018-07-17T17:37:12.477Z,5.20
2018-07-17T17:39:45.333Z,7.35
2018-07-17T17:42:17.593Z,5.62
2018-07-17T17:44:48.915Z,6.35
2018-07-17T17:47:21.080Z,6.95
2018-07-17T17:49:52.717Z,7.45
2018-07-17T17:52:22.925Z,5.03
2018-07-17T17:54:54.289Z,12.82
